sensor_id;sensor_type;location;lat;lon;timestamp;temperature;humidity
76102;SHT30;64830;46.910;6.354;2023-04-26T00:02:02;4.55;76.20
76102;SHT30;64830;46.910;6.354;2023-04-26T00:04:29;4.53;76.03
76102;SHT30;64830;46.910;6.354;2023-04-26T00:06:55;4.53;76.10
76102;SHT30;64830;46.910;6.354;2023-04-26T00:09:20;4.54;76.17
76102;SHT30;64830;46.910;6.354;2023-04-26T00:11:45;4.50;76.16
76102;SHT30;64830;46.910;6.354;2023-04-26T00:14:11;4.47;76.04
76102;SHT30;64830;46.910;6.354;2023-04-26T00:16:37;4.45;76.15
76102;SHT30;64830;46.910;6.354;2023-04-26T00:19:02;4.40;76.67
76102;SHT30;64830;46.910;6.354;2023-04-26T00:21:29;4.34;76.44
76102;SHT30;64830;46.910;6.354;2023-04-26T00:23:54;4.32;76.61
76102;SHT30;64830;46.910;6.354;2023-04-26T00:26:20;4.27;76.70
76102;SHT30;64830;46.910;6.354;2023-04-26T00:28:45;4.26;76.71
76102;SHT30;64830;46.910;6.354;2023-04-26T00:31:17;4.26;76.54
76102;SHT30;64830;46.910;6.354;2023-04-26T00:33:42;4.24;76.88
76102;SHT30;64830;46.910;6.354;2023-04-26T00:36:08;4.21;76.77
76102;SHT30;64830;46.910;6.354;2023-04-26T00:38:35;4.19;76.67
76102;SHT30;64830;46.910;6.354;2023-04-26T00:41:01;4.17;76.90
76102;SHT30;64830;46.910;6.354;2023-04-26T00:43:26;4.17;76.89
76102;SHT30;64830;46.910;6.354;2023-04-26T00:45:52;4.14;76.97
76102;SHT30;64830;46.910;6.354;2023-04-26T00:48:18;4.09;76.76
76102;SHT30;64830;46.910;6.354;2023-04-26T00:50:44;4.05;76.84
76102;SHT30;64830;46.910;6.354;2023-04-26T00:53:11;4.05;76.70
76102;SHT30;64830;46.910;6.354;2023-04-26T00:55:39;4.02;76.84
76102;SHT30;64830;46.910;6.354;2023-04-26T00:58:05;3.98;76.84
76102;SHT30;64830;46.910;6.354;2023-04-26T01:00:31;3.98;76.71
76102;SHT30;64830;46.910;6.354;2023-04-26T01:02:57;4.00;76.67
76102;SHT30;64830;46.910;6.354;2023-04-26T01:05:22;3.99;76.39
76102;SHT30;64830;46.910;6.354;2023-04-26T01:07:48;4.00;76.41
76102;SHT30;64830;46.910;6.354;2023-04-26T01:10:13;4.02;76.40
76102;SHT30;64830;46.910;6.354;2023-04-26T01:12:39;4.00;76.51
76102;SHT30;64830;46.910;6.354;2023-04-26T01:15:05;4.00;76.49
76102;SHT30;64830;46.910;6.354;2023-04-26T01:17:30;4.00;76.51
76102;SHT30;64830;46.910;6.354;2023-04-26T01:19:56;3.98;76.47
76102;SHT30;64830;46.910;6.354;2023-04-26T01:22:21;3.99;76.51
76102;SHT30;64830;46.910;6.354;2023-04-26T01:24:49;3.98;76.60
76102;SHT30;64830;46.910;6.354;2023-04-26T01:27:15;3.92;76.56
76102;SHT30;64830;46.910;6.354;2023-04-26T01:29:41;3.91;76.94
76102;SHT30;64830;46.910;6.354;2023-04-26T01:32:07;3.83;77.06
76102;SHT30;64830;46.910;6.354;2023-04-26T01:34:33;3.75;77.02
76102;SHT30;64830;46.910;6.354;2023-04-26T01:36:59;3.71;77.30
76102;SHT30;64830;46.910;6.354;2023-04-26T01:39:25;3.68;77.24
76102;SHT30;64830;46.910;6.354;2023-04-26T01:41:52;3.67;77.28
76102;SHT30;64830;46.910;6.354;2023-04-26T01:44:17;3.65;77.02
76102;SHT30;64830;46.910;6.354;2023-04-26T01:46:42;3.64;77.05
76102;SHT30;64830;46.910;6.354;2023-04-26T01:49:09;3.58;77.15
76102;SHT30;64830;46.910;6.354;2023-04-26T01:51:34;3.58;77.23
76102;SHT30;64830;46.910;6.354;2023-04-26T01:54:00;3.55;77.36
76102;SHT30;64830;46.910;6.354;2023-04-26T01:56:26;3.51;77.47
76102;SHT30;64830;46.910;6.354;2023-04-26T01:58:51;3.48;77.46
76102;SHT30;64830;46.910;6.354;2023-04-26T02:01:17;3.47;77.53
76102;SHT30;64830;46.910;6.354;2023-04-26T02:03:42;3.44;77.80
76102;SHT30;64830;46.910;6.354;2023-04-26T02:06:07;3.44;77.69
76102;SHT30;64830;46.910;6.354;2023-04-26T02:08:33;3.41;77.89
76102;SHT30;64830;46.910;6.354;2023-04-26T02:10:58;3.37;78.19
76102;SHT30;64830;46.910;6.354;2023-04-26T02:13:24;3.37;78.08
76102;SHT30;64830;46.910;6.354;2023-04-26T02:15:49;3.31;78.28
76102;SHT30;64830;46.910;6.354;2023-04-26T02:18:16;3.31;78.21
76102;SHT30;64830;46.910;6.354;2023-04-26T02:20:42;3.30;78.39
76102;SHT30;64830;46.910;6.354;2023-04-26T02:23:11;3.27;78.37
76102;SHT30;64830;46.910;6.354;2023-04-26T02:25:37;3.26;78.45
76102;SHT30;64830;46.910;6.354;2023-04-26T02:28:03;3.22;78.26
76102;SHT30;64830;46.910;6.354;2023-04-26T02:30:28;3.16;78.35
76102;SHT30;64830;46.910;6.354;2023-04-26T02:32:55;3.15;78.49
76102;SHT30;64830;46.910;6.354;2023-04-26T02:35:20;3.12;78.17
76102;SHT30;64830;46.910;6.354;2023-04-26T02:37:47;3.12;78.62
76102;SHT30;64830;46.910;6.354;2023-04-26T02:40:14;3.08;78.14
76102;SHT30;64830;46.910;6.354;2023-04-26T02:42:40;3.05;78.28
76102;SHT30;64830;46.910;6.354;2023-04-26T02:45:06;3.03;78.08
76102;SHT30;64830;46.910;6.354;2023-04-26T02:47:32;3.03;78.08
76102;SHT30;64830;46.910;6.354;2023-04-26T02:49:58;3.05;78.31
76102;SHT30;64830;46.910;6.354;2023-04-26T02:52:23;3.08;78.28
76102;SHT30;64830;46.910;6.354;2023-04-26T02:54:48;3.08;78.09
76102;SHT30;64830;46.910;6.354;2023-04-26T02:57:14;3.12;78.19
76102;SHT30;64830;46.910;6.354;2023-04-26T02:59:39;3.15;78.08
76102;SHT30;64830;46.910;6.354;2023-04-26T03:02:05;3.15;77.85
76102;SHT30;64830;46.910;6.354;2023-04-26T03:04:32;3.16;77.76
76102;SHT30;64830;46.910;6.354;2023-04-26T03:06:58;3.19;77.71
76102;SHT30;64830;46.910;6.354;2023-04-26T03:09:23;3.13;78.31
76102;SHT30;64830;46.910;6.354;2023-04-26T03:11:49;3.12;77.95
76102;SHT30;64830;46.910;6.354;2023-04-26T03:14:14;3.13;78.04
76102;SHT30;64830;46.910;6.354;2023-04-26T03:16:41;3.05;78.02
76102;SHT30;64830;46.910;6.354;2023-04-26T03:19:07;3.03;78.21
76102;SHT30;64830;46.910;6.354;2023-04-26T03:21:32;2.99;78.29
76102;SHT30;64830;46.910;6.354;2023-04-26T03:23:58;2.93;78.63
76102;SHT30;64830;46.910;6.354;2023-04-26T03:26:23;2.92;78.70
76102;SHT30;64830;46.910;6.354;2023-04-26T03:28:49;2.89;78.76
76102;SHT30;64830;46.910;6.354;2023-04-26T03:31:14;2.85;78.96
76102;SHT30;64830;46.910;6.354;2023-04-26T03:33:40;2.82;79.22
76102;SHT30;64830;46.910;6.354;2023-04-26T03:36:06;2.81;79.19
76102;SHT30;64830;46.910;6.354;2023-04-26T03:38:31;2.75;79.21
76102;SHT30;64830;46.910;6.354;2023-04-26T03:40:57;2.75;79.05
76102;SHT30;64830;46.910;6.354;2023-04-26T03:43:22;2.75;79.54
76102;SHT30;64830;46.910;6.354;2023-04-26T03:45:48;2.68;79.37
76102;SHT30;64830;46.910;6.354;2023-04-26T03:48:13;2.66;79.36
76102;SHT30;64830;46.910;6.354;2023-04-26T03:50:39;2.65;79.34
76102;SHT30;64830;46.910;6.354;2023-04-26T03:53:04;2.64;79.29
76102;SHT30;64830;46.910;6.354;2023-04-26T03:55:30;2.66;79.08
76102;SHT30;64830;46.910;6.354;2023-04-26T03:57:55;2.65;79.10
76102;SHT30;64830;46.910;6.354;2023-04-26T04:00:20;2.65;79.06
76102;SHT30;64830;46.910;6.354;2023-04-26T04:02:46;2.62;79.02
76102;SHT30;64830;46.910;6.354;2023-04-26T04:05:11;2.64;78.79
76102;SHT30;64830;46.910;6.354;2023-04-26T04:07:37;2.66;78.68
76102;SHT30;64830;46.910;6.354;2023-04-26T04:10:02;2.68;78.77
76102;SHT30;64830;46.910;6.354;2023-04-26T04:12:28;2.70;78.58
76102;SHT30;64830;46.910;6.354;2023-04-26T04:14:53;2.72;78.52
76102;SHT30;64830;46.910;6.354;2023-04-26T04:17:19;2.70;78.77
76102;SHT30;64830;46.910;6.354;2023-04-26T04:19:44;2.71;78.70
76102;SHT30;64830;46.910;6.354;2023-04-26T04:22:10;2.72;78.60
76102;SHT30;64830;46.910;6.354;2023-04-26T04:24:36;2.74;78.79
76102;SHT30;64830;46.910;6.354;2023-04-26T04:27:02;2.77;78.52
76102;SHT30;64830;46.910;6.354;2023-04-26T04:29:27;2.78;78.50
76102;SHT30;64830;46.910;6.354;2023-04-26T04:31:53;2.75;78.57
76102;SHT30;64830;46.910;6.354;2023-04-26T04:34:18;2.75;78.55
76102;SHT30;64830;46.910;6.354;2023-04-26T04:36:44;2.77;78.77
76102;SHT30;64830;46.910;6.354;2023-04-26T04:39:09;2.74;78.81
76102;SHT30;64830;46.910;6.354;2023-04-26T04:41:40;2.74;78.78
76102;SHT30;64830;46.910;6.354;2023-04-26T04:44:12;2.70;78.95
76102;SHT30;64830;46.910;6.354;2023-04-26T04:46:37;2.68;79.28
76102;SHT30;64830;46.910;6.354;2023-04-26T04:49:04;2.66;79.36
76102;SHT30;64830;46.910;6.354;2023-04-26T04:51:30;2.64;79.43
76102;SHT30;64830;46.910;6.354;2023-04-26T04:53:56;2.62;79.57
76102;SHT30;64830;46.910;6.354;2023-04-26T04:56:21;2.60;79.57
76102;SHT30;64830;46.910;6.354;2023-04-26T04:58:47;2.60;79.81
76102;SHT30;64830;46.910;6.354;2023-04-26T05:01:13;2.60;79.95
76102;SHT30;64830;46.910;6.354;2023-04-26T05:03:39;2.61;80.14
76102;SHT30;64830;46.910;6.354;2023-04-26T05:06:05;2.58;80.11
76102;SHT30;64830;46.910;6.354;2023-04-26T05:08:32;2.61;80.06
76102;SHT30;64830;46.910;6.354;2023-04-26T05:10:57;2.60;80.34
76102;SHT30;64830;46.910;6.354;2023-04-26T05:13:23;2.61;80.41
76102;SHT30;64830;46.910;6.354;2023-04-26T05:15:48;2.62;80.35
76102;SHT30;64830;46.910;6.354;2023-04-26T05:18:14;2.60;80.46
76102;SHT30;64830;46.910;6.354;2023-04-26T05:20:39;2.62;80.53
76102;SHT30;64830;46.910;6.354;2023-04-26T05:23:05;2.65;80.46
76102;SHT30;64830;46.910;6.354;2023-04-26T05:25:35;2.71;80.21
76102;SHT30;64830;46.910;6.354;2023-04-26T05:28:01;2.78;80.19
76102;SHT30;64830;46.910;6.354;2023-04-26T05:30:26;2.88;80.27
76102;SHT30;64830;46.910;6.354;2023-04-26T05:32:52;2.98;79.71
76102;SHT30;64830;46.910;6.354;2023-04-26T05:35:17;3.08;79.55
76102;SHT30;64830;46.910;6.354;2023-04-26T05:37:43;3.24;79.20
76102;SHT30;64830;46.910;6.354;2023-04-26T05:40:08;3.37;79.07
76102;SHT30;64830;46.910;6.354;2023-04-26T05:42:36;3.44;78.86
76102;SHT30;64830;46.910;6.354;2023-04-26T05:45:01;3.51;78.98
76102;SHT30;64830;46.910;6.354;2023-04-26T05:47:27;3.64;78.67
76102;SHT30;64830;46.910;6.354;2023-04-26T05:49:52;3.75;78.44
76102;SHT30;64830;46.910;6.354;2023-04-26T05:52:18;3.91;78.29
76102;SHT30;64830;46.910;6.354;2023-04-26T05:54:43;4.09;77.87
76102;SHT30;64830;46.910;6.354;2023-04-26T05:57:08;4.30;77.92
76102;SHT30;64830;46.910;6.354;2023-04-26T05:59:37;4.44;77.28
76102;SHT30;64830;46.910;6.354;2023-04-26T06:02:02;4.50;76.95
76102;SHT30;64830;46.910;6.354;2023-04-26T06:04:29;4.55;77.03
76102;SHT30;64830;46.910;6.354;2023-04-26T06:06:54;4.57;76.71
76102;SHT30;64830;46.910;6.354;2023-04-26T06:09:19;4.57;76.76
76102;SHT30;64830;46.910;6.354;2023-04-26T06:11:45;4.60;76.69
76102;SHT30;64830;46.910;6.354;2023-04-26T06:14:10;4.60;76.63
76102;SHT30;64830;46.910;6.354;2023-04-26T06:16:36;4.67;76.53
76102;SHT30;64830;46.910;6.354;2023-04-26T06:19:01;4.71;76.34
76102;SHT30;64830;46.910;6.354;2023-04-26T06:21:27;4.73;76.22
76102;SHT30;64830;46.910;6.354;2023-04-26T06:23:52;4.79;76.51
76102;SHT30;64830;46.910;6.354;2023-04-26T06:26:17;4.82;76.16
76102;SHT30;64830;46.910;6.354;2023-04-26T06:28:43;4.86;76.16
76102;SHT30;64830;46.910;6.354;2023-04-26T06:31:08;4.86;76.16
76102;SHT30;64830;46.910;6.354;2023-04-26T06:33:34;4.89;76.44
76102;SHT30;64830;46.910;6.354;2023-04-26T06:35:59;4.96;76.43
76102;SHT30;64830;46.910;6.354;2023-04-26T06:38:24;4.99;76.43
76102;SHT30;64830;46.910;6.354;2023-04-26T06:40:50;5.07;76.37
76102;SHT30;64830;46.910;6.354;2023-04-26T06:43:15;5.13;76.20
76102;SHT30;64830;46.910;6.354;2023-04-26T06:45:41;5.17;76.26
76102;SHT30;64830;46.910;6.354;2023-04-26T06:48:06;5.27;76.09
76102;SHT30;64830;46.910;6.354;2023-04-26T06:50:32;5.38;75.72
76102;SHT30;64830;46.910;6.354;2023-04-26T06:52:57;5.38;76.02
76102;SHT30;64830;46.910;6.354;2023-04-26T06:55:23;5.44;75.51
76102;SHT30;64830;46.910;6.354;2023-04-26T06:57:49;5.44;75.81
76102;SHT30;64830;46.910;6.354;2023-04-26T07:00:15;5.51;75.95
76102;SHT30;64830;46.910;6.354;2023-04-26T07:02:41;5.66;76.16
76102;SHT30;64830;46.910;6.354;2023-04-26T07:05:07;5.85;75.85
76102;SHT30;64830;46.910;6.354;2023-04-26T07:07:32;5.99;75.57
76102;SHT30;64830;46.910;6.354;2023-04-26T07:09:58;6.17;75.41
76102;SHT30;64830;46.910;6.354;2023-04-26T07:12:23;6.42;75.32
76102;SHT30;64830;46.910;6.354;2023-04-26T07:14:49;6.65;74.97
76102;SHT30;64830;46.910;6.354;2023-04-26T07:17:14;6.89;74.11
76102;SHT30;64830;46.910;6.354;2023-04-26T07:19:40;7.10;73.94
76102;SHT30;64830;46.910;6.354;2023-04-26T07:22:05;7.31;73.77
76102;SHT30;64830;46.910;6.354;2023-04-26T07:24:30;7.52;73.52
76102;SHT30;64830;46.910;6.354;2023-04-26T07:26:56;7.69;72.98
76102;SHT30;64830;46.910;6.354;2023-04-26T07:29:22;7.91;72.95
76102;SHT30;64830;46.910;6.354;2023-04-26T07:31:48;8.11;72.49
76102;SHT30;64830;46.910;6.354;2023-04-26T07:34:13;8.34;72.43
76102;SHT30;64830;46.910;6.354;2023-04-26T07:36:38;8.53;71.62
76102;SHT30;64830;46.910;6.354;2023-04-26T07:39:04;8.76;71.02
76102;SHT30;64830;46.910;6.354;2023-04-26T07:41:30;8.97;71.11
76102;SHT30;64830;46.910;6.354;2023-04-26T07:43:56;9.17;71.03
76102;SHT30;64830;46.910;6.354;2023-04-26T07:46:21;9.39;70.11
76102;SHT30;64830;46.910;6.354;2023-04-26T07:48:47;9.60;69.66
76102;SHT30;64830;46.910;6.354;2023-04-26T07:51:12;9.76;69.86
76102;SHT30;64830;46.910;6.354;2023-04-26T07:53:38;9.98;68.70
76102;SHT30;64830;46.910;6.354;2023-04-26T07:56:05;10.17;68.17
76102;SHT30;64830;46.910;6.354;2023-04-26T07:58:37;10.34;67.84
76102;SHT30;64830;46.910;6.354;2023-04-26T08:01:03;10.42;67.40
76102;SHT30;64830;46.910;6.354;2023-04-26T08:03:29;10.55;66.40
76102;SHT30;64830;46.910;6.354;2023-04-26T08:05:55;10.66;66.13
76102;SHT30;64830;46.910;6.354;2023-04-26T08:08:24;10.81;66.02
76102;SHT30;64830;46.910;6.354;2023-04-26T08:10:49;10.90;65.23
76102;SHT30;64830;46.910;6.354;2023-04-26T08:13:15;11.01;65.57
76102;SHT30;64830;46.910;6.354;2023-04-26T08:15:40;11.18;63.93
76102;SHT30;64830;46.910;6.354;2023-04-26T08:18:06;11.07;63.52
76102;SHT30;64830;46.910;6.354;2023-04-26T08:20:31;11.10;63.94
76102;SHT30;64830;46.910;6.354;2023-04-26T08:22:57;11.12;59.63
76102;SHT30;64830;46.910;6.354;2023-04-26T08:25:23;11.03;58.61
76102;SHT30;64830;46.910;6.354;2023-04-26T08:27:49;11.03;61.03
76102;SHT30;64830;46.910;6.354;2023-04-26T08:30:15;11.12;59.22
76102;SHT30;64830;46.910;6.354;2023-04-26T08:32:40;11.07;55.74
76102;SHT30;64830;46.910;6.354;2023-04-26T08:35:06;11.07;59.63
76102;SHT30;64830;46.910;6.354;2023-04-26T08:37:31;11.18;60.30
76102;SHT30;64830;46.910;6.354;2023-04-26T08:39:57;11.18;58.16
76102;SHT30;64830;46.910;6.354;2023-04-26T08:42:26;11.11;58.46
76102;SHT30;64830;46.910;6.354;2023-04-26T08:44:53;11.18;57.86
76102;SHT30;64830;46.910;6.354;2023-04-26T08:47:28;11.11;59.73
76102;SHT30;64830;46.910;6.354;2023-04-26T08:50:00;11.22;59.49
76102;SHT30;64830;46.910;6.354;2023-04-26T08:52:30;11.36;58.29
76102;SHT30;64830;46.910;6.354;2023-04-26T08:54:56;11.51;59.51
76102;SHT30;64830;46.910;6.354;2023-04-26T08:57:23;11.63;55.05
76102;SHT30;64830;46.910;6.354;2023-04-26T08:59:49;11.53;56.44
76102;SHT30;64830;46.910;6.354;2023-04-26T09:02:20;11.56;55.30
76102;SHT30;64830;46.910;6.354;2023-04-26T09:04:47;11.47;57.90
76102;SHT30;64830;46.910;6.354;2023-04-26T09:07:27;11.55;54.90
76102;SHT30;64830;46.910;6.354;2023-04-26T09:09:56;11.47;54.14
76102;SHT30;64830;46.910;6.354;2023-04-26T09:12:22;11.47;53.89
76102;SHT30;64830;46.910;6.354;2023-04-26T09:14:48;11.46;55.30
76102;SHT30;64830;46.910;6.354;2023-04-26T09:19:51;11.70;54.53
76102;SHT30;64830;46.910;6.354;2023-04-26T09:22:32;11.86;52.60
76102;SHT30;64830;46.910;6.354;2023-04-26T09:24:58;11.90;49.58
76102;SHT30;64830;46.910;6.354;2023-04-26T09:27:35;11.84;50.17
76102;SHT30;64830;46.910;6.354;2023-04-26T09:30:27;11.79;49.32
76102;SHT30;64830;46.910;6.354;2023-04-26T09:32:58;11.87;53.01
76102;SHT30;64830;46.910;6.354;2023-04-26T09:35:24;12.00;51.43
76102;SHT30;64830;46.910;6.354;2023-04-26T09:37:51;12.10;51.55
76102;SHT30;64830;46.910;6.354;2023-04-26T09:40:18;12.20;51.27
76102;SHT30;64830;46.910;6.354;2023-04-26T09:42:46;12.26;52.88
76102;SHT30;64830;46.910;6.354;2023-04-26T09:45:12;12.35;50.86
76102;SHT30;64830;46.910;6.354;2023-04-26T09:47:37;12.26;51.78
76102;SHT30;64830;46.910;6.354;2023-04-26T09:50:03;12.32;51.21
76102;SHT30;64830;46.910;6.354;2023-04-26T09:52:28;12.35;51.11
76102;SHT30;64830;46.910;6.354;2023-04-26T09:54:54;12.39;51.46
76102;SHT30;64830;46.910;6.354;2023-04-26T09:57:20;12.39;51.55
76102;SHT30;64830;46.910;6.354;2023-04-26T09:59:48;12.35;50.69
76102;SHT30;64830;46.910;6.354;2023-04-26T10:02:24;12.38;51.69
76102;SHT30;64830;46.910;6.354;2023-04-26T10:04:52;12.52;51.91
76102;SHT30;64830;46.910;6.354;2023-04-26T10:07:20;12.56;51.19
76102;SHT30;64830;46.910;6.354;2023-04-26T10:09:46;12.43;50.26
76102;SHT30;64830;46.910;6.354;2023-04-26T10:12:13;12.39;52.12
76102;SHT30;64830;46.910;6.354;2023-04-26T10:14:39;12.46;49.66
76102;SHT30;64830;46.910;6.354;2023-04-26T10:17:05;12.53;51.46
76102;SHT30;64830;46.910;6.354;2023-04-26T10:19:33;12.67;49.18
76102;SHT30;64830;46.910;6.354;2023-04-26T10:22:03;12.75;51.85
76102;SHT30;64830;46.910;6.354;2023-04-26T10:24:29;12.81;51.43
76102;SHT30;64830;46.910;6.354;2023-04-26T10:26:55;12.79;50.92
76102;SHT30;64830;46.910;6.354;2023-04-26T10:29:25;12.86;51.47
76102;SHT30;64830;46.910;6.354;2023-04-26T10:34:27;12.86;47.65
76102;SHT30;64830;46.910;6.354;2023-04-26T10:37:09;12.81;48.17
76102;SHT30;64830;46.910;6.354;2023-04-26T10:39:36;12.77;48.31
76102;SHT30;64830;46.910;6.354;2023-04-26T10:42:24;12.73;46.92
76102;SHT30;64830;46.910;6.354;2023-04-26T10:45:22;12.75;47.93
76102;SHT30;64830;46.910;6.354;2023-04-26T10:47:46;12.66;48.68
76102;SHT30;64830;46.910;6.354;2023-04-26T10:50:11;12.63;49.78
76102;SHT30;64830;46.910;6.354;2023-04-26T10:55:39;12.93;49.21
76102;SHT30;64830;46.910;6.354;2023-04-26T11:01:08;12.98;44.68
76102;SHT30;64830;46.910;6.354;2023-04-26T11:03:39;12.77;47.63
76102;SHT30;64830;46.910;6.354;2023-04-26T11:06:06;12.80;49.50
76102;SHT30;64830;46.910;6.354;2023-04-26T11:08:31;12.97;47.56
76102;SHT30;64830;46.910;6.354;2023-04-26T11:13:40;13.25;49.49
76102;SHT30;64830;46.910;6.354;2023-04-26T11:16:07;13.42;50.06
76102;SHT30;64830;46.910;6.354;2023-04-26T11:18:34;13.45;49.58
76102;SHT30;64830;46.910;6.354;2023-04-26T11:21:00;13.58;49.08
76102;SHT30;64830;46.910;6.354;2023-04-26T11:23:28;13.59;47.55
76102;SHT30;64830;46.910;6.354;2023-04-26T11:25:57;13.49;48.84
76102;SHT30;64830;46.910;6.354;2023-04-26T11:28:22;13.38;50.05
76102;SHT30;64830;46.910;6.354;2023-04-26T11:30:48;13.41;50.00
76102;SHT30;64830;46.910;6.354;2023-04-26T11:33:16;13.49;49.87
76102;SHT30;64830;46.910;6.354;2023-04-26T11:35:43;13.56;48.22
76102;SHT30;64830;46.910;6.354;2023-04-26T11:38:10;13.55;49.06
76102;SHT30;64830;46.910;6.354;2023-04-26T11:40:35;13.52;46.23
76102;SHT30;64830;46.910;6.354;2023-04-26T11:43:05;13.52;47.98
76102;SHT30;64830;46.910;6.354;2023-04-26T11:45:32;13.59;45.59
76102;SHT30;64830;46.910;6.354;2023-04-26T11:47:59;13.56;48.15
76102;SHT30;64830;46.910;6.354;2023-04-26T11:50:25;13.73;49.07
76102;SHT30;64830;46.910;6.354;2023-04-26T11:52:55;13.90;48.60
76102;SHT30;64830;46.910;6.354;2023-04-26T11:55:31;13.97;47.66
76102;SHT30;64830;46.910;6.354;2023-04-26T11:57:58;14.07;47.79
76102;SHT30;64830;46.910;6.354;2023-04-26T12:00:24;14.20;46.85
76102;SHT30;64830;46.910;6.354;2023-04-26T12:02:50;14.26;47.35
76102;SHT30;64830;46.910;6.354;2023-04-26T12:05:34;14.17;47.49
76102;SHT30;64830;46.910;6.354;2023-04-26T12:08:00;14.11;47.21
76102;SHT30;64830;46.910;6.354;2023-04-26T12:10:36;13.97;46.49
76102;SHT30;64830;46.910;6.354;2023-04-26T12:13:01;13.81;46.49
76102;SHT30;64830;46.910;6.354;2023-04-26T12:15:29;13.87;46.97
76102;SHT30;64830;46.910;6.354;2023-04-26T12:18:05;13.91;47.18
76102;SHT30;64830;46.910;6.354;2023-04-26T12:20:34;13.88;47.44
76102;SHT30;64830;46.910;6.354;2023-04-26T12:25:25;13.84;47.80
76102;SHT30;64830;46.910;6.354;2023-04-26T12:27:51;13.81;47.12
76102;SHT30;64830;46.910;6.354;2023-04-26T12:30:17;13.74;47.23
76102;SHT30;64830;46.910;6.354;2023-04-26T12:32:42;13.74;46.92
76102;SHT30;64830;46.910;6.354;2023-04-26T12:35:08;13.73;45.92
76102;SHT30;64830;46.910;6.354;2023-04-26T12:37:33;13.80;46.09
76102;SHT30;64830;46.910;6.354;2023-04-26T12:39:59;13.86;46.78
76102;SHT30;64830;46.910;6.354;2023-04-26T12:42:25;13.94;45.35
76102;SHT30;64830;46.910;6.354;2023-04-26T12:44:50;13.93;44.58
76102;SHT30;64830;46.910;6.354;2023-04-26T12:47:16;13.86;46.56
76102;SHT30;64830;46.910;6.354;2023-04-26T12:49:42;13.86;45.52
76102;SHT30;64830;46.910;6.354;2023-04-26T12:52:07;13.90;43.69
76102;SHT30;64830;46.910;6.354;2023-04-26T12:54:33;13.86;44.15
76102;SHT30;64830;46.910;6.354;2023-04-26T12:56:58;13.88;44.22
76102;SHT30;64830;46.910;6.354;2023-04-26T12:59:24;13.95;43.84
76102;SHT30;64830;46.910;6.354;2023-04-26T13:01:49;14.10;45.23
76102;SHT30;64830;46.910;6.354;2023-04-26T13:04:15;14.24;45.46
76102;SHT30;64830;46.910;6.354;2023-04-26T13:06:40;14.29;45.78
76102;SHT30;64830;46.910;6.354;2023-04-26T13:09:06;14.32;43.99
76102;SHT30;64830;46.910;6.354;2023-04-26T13:11:32;14.21;44.17
76102;SHT30;64830;46.910;6.354;2023-04-26T13:13:57;14.14;44.90
76102;SHT30;64830;46.910;6.354;2023-04-26T13:16:24;14.15;45.68
76102;SHT30;64830;46.910;6.354;2023-04-26T13:18:49;14.22;44.96
76102;SHT30;64830;46.910;6.354;2023-04-26T13:21:15;14.18;44.89
76102;SHT30;64830;46.910;6.354;2023-04-26T13:23:40;14.15;43.39
76102;SHT30;64830;46.910;6.354;2023-04-26T13:26:06;14.25;44.96
76102;SHT30;64830;46.910;6.354;2023-04-26T13:28:31;14.46;45.30
76102;SHT30;64830;46.910;6.354;2023-04-26T13:30:57;14.66;43.92
76102;SHT30;64830;46.910;6.354;2023-04-26T13:33:23;14.72;44.62
76102;SHT30;64830;46.910;6.354;2023-04-26T13:35:48;14.70;44.49
76102;SHT30;64830;46.910;6.354;2023-04-26T13:38:14;14.59;43.95
76102;SHT30;64830;46.910;6.354;2023-04-26T13:40:40;14.59;45.02
76102;SHT30;64830;46.910;6.354;2023-04-26T13:43:05;14.72;44.68
76102;SHT30;64830;46.910;6.354;2023-04-26T13:45:30;14.73;42.44
76102;SHT30;64830;46.910;6.354;2023-04-26T13:47:56;14.65;44.03
76102;SHT30;64830;46.910;6.354;2023-04-26T13:50:21;14.63;44.14
76102;SHT30;64830;46.910;6.354;2023-04-26T13:52:46;14.70;45.06
76102;SHT30;64830;46.910;6.354;2023-04-26T13:55:15;14.77;44.43
76102;SHT30;64830;46.910;6.354;2023-04-26T13:57:40;14.73;43.29
76102;SHT30;64830;46.910;6.354;2023-04-26T14:00:06;14.67;45.08
76102;SHT30;64830;46.910;6.354;2023-04-26T14:02:32;14.67;45.44
76102;SHT30;64830;46.910;6.354;2023-04-26T14:04:58;14.66;45.49
76102;SHT30;64830;46.910;6.354;2023-04-26T14:07:23;14.59;44.75
76102;SHT30;64830;46.910;6.354;2023-04-26T14:09:49;14.52;44.63
76102;SHT30;64830;46.910;6.354;2023-04-26T14:12:16;14.49;45.37
76102;SHT30;64830;46.910;6.354;2023-04-26T14:14:41;14.57;45.97
76102;SHT30;64830;46.910;6.354;2023-04-26T14:17:07;14.65;45.06
76102;SHT30;64830;46.910;6.354;2023-04-26T14:19:32;14.69;44.74
76102;SHT30;64830;46.910;6.354;2023-04-26T14:21:57;14.73;45.06
76102;SHT30;64830;46.910;6.354;2023-04-26T14:24:23;14.80;46.20
76102;SHT30;64830;46.910;6.354;2023-04-26T14:26:48;14.87;45.72
76102;SHT30;64830;46.910;6.354;2023-04-26T14:29:14;14.94;44.67
76102;SHT30;64830;46.910;6.354;2023-04-26T14:31:39;15.04;45.80
76102;SHT30;64830;46.910;6.354;2023-04-26T14:34:05;15.05;45.24
76102;SHT30;64830;46.910;6.354;2023-04-26T14:36:31;15.04;44.03
76102;SHT30;64830;46.910;6.354;2023-04-26T14:38:57;15.01;45.34
76102;SHT30;64830;46.910;6.354;2023-04-26T14:41:23;15.07;44.86
76102;SHT30;64830;46.910;6.354;2023-04-26T14:43:48;15.11;45.63
76102;SHT30;64830;46.910;6.354;2023-04-26T14:46:14;15.19;45.74
76102;SHT30;64830;46.910;6.354;2023-04-26T14:48:40;15.27;45.57
76102;SHT30;64830;46.910;6.354;2023-04-26T14:51:07;15.29;46.04
76102;SHT30;64830;46.910;6.354;2023-04-26T14:53:33;15.25;45.73
76102;SHT30;64830;46.910;6.354;2023-04-26T14:55:59;15.21;44.88
76102;SHT30;64830;46.910;6.354;2023-04-26T14:58:25;15.04;44.77
76102;SHT30;64830;46.910;6.354;2023-04-26T15:00:52;14.90;45.26
76102;SHT30;64830;46.910;6.354;2023-04-26T15:03:18;14.81;44.87
76102;SHT30;64830;46.910;6.354;2023-04-26T15:05:45;14.74;45.27
76102;SHT30;64830;46.910;6.354;2023-04-26T15:08:10;14.69;45.49
76102;SHT30;64830;46.910;6.354;2023-04-26T15:10:36;14.62;45.54
76102;SHT30;64830;46.910;6.354;2023-04-26T15:13:01;14.57;45.23
76102;SHT30;64830;46.910;6.354;2023-04-26T15:15:27;14.48;46.17
76102;SHT30;64830;46.910;6.354;2023-04-26T15:17:52;14.40;45.93
76102;SHT30;64830;46.910;6.354;2023-04-26T15:20:18;14.29;46.27
76102;SHT30;64830;46.910;6.354;2023-04-26T15:22:43;14.22;45.91
76102;SHT30;64830;46.910;6.354;2023-04-26T15:25:09;14.14;45.45
76102;SHT30;64830;46.910;6.354;2023-04-26T15:27:36;14.05;46.45
76102;SHT30;64830;46.910;6.354;2023-04-26T15:30:05;13.97;47.94
76102;SHT30;64830;46.910;6.354;2023-04-26T15:32:31;13.93;47.77
76102;SHT30;64830;46.910;6.354;2023-04-26T15:34:56;13.90;47.51
76102;SHT30;64830;46.910;6.354;2023-04-26T15:37:23;13.86;47.22
76102;SHT30;64830;46.910;6.354;2023-04-26T15:39:49;13.84;47.81
76102;SHT30;64830;46.910;6.354;2023-04-26T15:42:14;13.83;47.62
76102;SHT30;64830;46.910;6.354;2023-04-26T15:44:39;13.78;47.39
76102;SHT30;64830;46.910;6.354;2023-04-26T15:47:05;13.73;47.98
76102;SHT30;64830;46.910;6.354;2023-04-26T15:49:30;13.67;47.97